North Long Branch, New Jersey
Current Conditions -  °F | °C
As of 1:35 PM on Saturday 25 Oct 2014 (Local Time) from KBLM Reporting Station
Clear Clear  
Wind Chill: 66°   Ceiling: Unl
Heat Index: 66°   Visibility: 10mi
Dew Point: 43°   Wind: 13mph
Humidity: 43%   Direction: 270°W
Pressure: 29.76"   Gusts: NA
Location:  40.2954°N, 73.9914°W
Report Text: KBLM 251735Z AUTO 27011KT 10SM CLR 19/06 A2976 RMK AO1
Loading
Personal Weather Stations






























Interactive Weather Map
Tropical Storm Tracking
New forecast layout! Learn more

10-Day Weather Forecast

Advertisements
Track Severe Weather on mobile